Aérodrome :
LOGIN :

S'inscrire | Disclaimer

   EN    FR    IT 

 










Légende :    VFR   VFR Marginal   IFR   IFR Intensif   IFR Très Intensif
Visi : 
Plafond : 
>= 8 km
>= 3000ft
5 à 8 km
1000 à 3000 ft
1500m à 5 km
500 à 1000 ft
800 à 1500m
200 à 500 ft
< 800m
< 200 ft
Symboles :   Orages  Brouillard  Fortes neiges  Fortes précipitations  Vent > 20 kt
SIGMETs :   Divers  Orages  Givrage  Turbulence  Onde Orograph.  Cendres Volcan.






- Altitude de l'aérodrome : 26 ft
- Code IATA : SYY


EGPO - Stornoway

DERNIER METAR :
  • 261650Z AUTO 23014KT 9999 OVC039/// 13/06 Q1034

METARs EXPIRÉS :
  • 261620Z AUTO 24014KT 9999 SCT032/// BKN041/// 13/06 Q1034
  • 261550Z AUTO 24014KT 220V280 9999 FEW034/// BKN044/// 13/06 Q1034
  • 261520Z 24017KT 9999 FEW018 SCT030 14/06 Q1034
  • 261450Z 24014KT 9999 FEW018 SCT030 14/06 Q1034
  • 261420Z 25014KT 220V290 9999 FEW018 SCT030 14/06 Q1034

TAF TAF EGPO
Valide du 26 à 15h jusqu'au 27 à 00h UTC


261401Z 2615/2624 24012KT 9999 SCT020
ATIS : +44 1851 707 444



MET'MAP, la Météo Aéronautique d'un coup d'oeil ! - Copyright ORBIFLY Décembre 2007 - Disclaimer

ORBIFLY MET'MAP TEAM :

Programmation & Développement : Alexandra Zaïnal
Sur une idée originale de : Baudouin d'Aumeries
Assistance à la programmation : Marc-Olivier Méhu
Soutien technique & logistique : Manuel Goepfert

Contact : metmap@orbifly.com




SOURCES & CREDITS :

   NOAA